Rego Park, New York
Current Conditions -  °F | °C
As of 5:51 AM on Friday 21 Nov 2014 (Local Time) from KLGA Reporting Station
Clear Clear  
Wind Chill: 18°   Ceiling: Unl
Heat Index: 29°   Visibility: 10mi
Dew Point: 10°   Wind: 14mph
Humidity: 45%   Direction: 280°W
Pressure: 30.16"   Gusts: 28mph
Location:  40.73°N, 73.85°W
Report Text: KLGA 211051Z 28012G24KT 10SM CLR M02/M12 A3016 RMK AO2 SLP213 T10171122
Loading
Personal Weather Stations






























Interactive Weather Map New forecast layout! Learn more

10-Day Weather Forecast

Advertisements
Track Severe Weather on mobile